sensor_id;sensor_type;location;lat;lon;timestamp;pressure;altitude;pressure_sealevel;temperature;humidity
43364;BME280;40636;52.424;-1.948;2022-10-31T00:00:47;99772.00;;;10.58;100.00
43364;BME280;40636;52.424;-1.948;2022-10-31T00:03:16;99769.53;;;10.56;100.00
43364;BME280;40636;52.424;-1.948;2022-10-31T00:05:44;99770.13;;;10.58;100.00
43364;BME280;40636;52.424;-1.948;2022-10-31T00:08:11;99760.47;;;10.56;100.00
43364;BME280;40636;52.424;-1.948;2022-10-31T00:10:39;99769.25;;;10.58;100.00
43364;BME280;40636;52.424;-1.948;2022-10-31T00:13:07;99767.63;;;10.57;100.00
43364;BME280;40636;52.424;-1.948;2022-10-31T00:15:35;99769.03;;;10.59;100.00
43364;BME280;40636;52.424;-1.948;2022-10-31T00:18:03;99770.41;;;10.62;100.00
43364;BME280;40636;52.424;-1.948;2022-10-31T00:20:30;99764.63;;;10.58;100.00
43364;BME280;40636;52.424;-1.948;2022-10-31T00:22:58;99764.63;;;10.58;100.00
43364;BME280;40636;52.424;-1.948;2022-10-31T00:25:26;99772.88;;;10.58;100.00
43364;BME280;40636;52.424;-1.948;2022-10-31T00:27:54;99764.63;;;10.58;100.00
43364;BME280;40636;52.424;-1.948;2022-10-31T00:30:21;99770.94;;;10.59;100.00
43364;BME280;40636;52.424;-1.948;2022-10-31T00:32:48;99764.94;;;10.62;100.00
43364;BME280;40636;52.424;-1.948;2022-10-31T00:35:15;99764.09;;;10.61;100.00
43364;BME280;40636;52.424;-1.948;2022-10-31T00:37:42;99764.94;;;10.62;100.00
43364;BME280;40636;52.424;-1.948;2022-10-31T00:40:09;99766.28;;;10.59;100.00
43364;BME280;40636;52.424;-1.948;2022-10-31T00:42:36;99768.97;;;10.54;100.00
43364;BME280;40636;52.424;-1.948;2022-10-31T00:45:03;99767.63;;;10.57;100.00
43364;BME280;40636;52.424;-1.948;2022-10-31T00:47:30;99764.81;;;10.52;100.00
43364;BME280;40636;52.424;-1.948;2022-10-31T00:49:57;99767.56;;;10.52;100.00
43364;BME280;40636;52.424;-1.948;2022-10-31T00:52:24;99769.78;;;10.55;100.00
43364;BME280;40636;52.424;-1.948;2022-10-31T00:54:50;99764.53;;;10.53;100.00
43364;BME280;40636;52.424;-1.948;2022-10-31T00:57:17;99768.38;;;10.52;100.00
43364;BME280;40636;52.424;-1.948;2022-10-31T00:59:44;99769.75;;;10.50;100.00
43364;BME280;40636;52.424;-1.948;2022-10-31T01:02:11;99766.06;;;10.44;100.00
43364;BME280;40636;52.424;-1.948;2022-10-31T01:04:38;99761.69;;;10.43;100.00
43364;BME280;40636;52.424;-1.948;2022-10-31T01:07:04;99765.25;;;10.44;100.00
43364;BME280;40636;52.424;-1.948;2022-10-31T01:09:31;99763.31;;;10.44;100.00
43364;BME280;40636;52.424;-1.948;2022-10-31T01:11:58;99759.53;;;10.45;100.00
43364;BME280;40636;52.424;-1.948;2022-10-31T01:14:25;99754.88;;;10.46;100.00
43364;BME280;40636;52.424;-1.948;2022-10-31T01:16:51;99752.94;;;10.46;100.00
43364;BME280;40636;52.424;-1.948;2022-10-31T01:19:18;99754.03;;;10.45;100.00
43364;BME280;40636;52.424;-1.948;2022-10-31T01:21:46;99757.84;;;10.44;100.00
43364;BME280;40636;52.424;-1.948;2022-10-31T01:24:12;99741.91;;;10.41;100.00
43364;BME280;40636;52.424;-1.948;2022-10-31T01:26:39;99752.88;;;10.41;100.00
43364;BME280;40636;52.424;-1.948;2022-10-31T01:29:07;99753.94;;;10.40;100.00
43364;BME280;40636;52.424;-1.948;2022-10-31T01:31:37;99749.56;;;10.39;100.00
43364;BME280;40636;52.424;-1.948;2022-10-31T01:34:05;99749.00;;;10.37;100.00
43364;BME280;40636;52.424;-1.948;2022-10-31T01:36:35;99750.63;;;10.38;100.00
43364;BME280;40636;52.424;-1.948;2022-10-31T01:39:05;99752.28;;;10.39;100.00
43364;BME280;40636;52.424;-1.948;2022-10-31T01:41:35;99757.78;;;10.39;100.00
43364;BME280;40636;52.424;-1.948;2022-10-31T01:46:53;99748.47;;;10.40;100.00
43364;BME280;40636;52.424;-1.948;2022-10-31T01:49:43;99744.59;;;10.36;100.00
43364;BME280;40636;52.424;-1.948;2022-10-31T01:52:16;99733.63;;;10.36;100.00
43364;BME280;40636;52.424;-1.948;2022-10-31T01:54:48;99745.16;;;10.38;100.00
43364;BME280;40636;52.424;-1.948;2022-10-31T01:57:18;99741.84;;;10.36;100.00
43364;BME280;40636;52.424;-1.948;2022-10-31T01:59:49;99748.16;;;10.36;100.00
43364;BME280;40636;52.424;-1.948;2022-10-31T02:02:18;99748.41;;;10.35;100.00
43364;BME280;40636;52.424;-1.948;2022-10-31T02:04:47;99746.75;;;10.34;100.00
43364;BME280;40636;52.424;-1.948;2022-10-31T02:07:17;99753.88;;;10.35;100.00
43364;BME280;40636;52.424;-1.948;2022-10-31T02:09:47;99745.59;;;10.30;100.00
43364;BME280;40636;52.424;-1.948;2022-10-31T02:12:16;99746.13;;;10.27;100.00
43364;BME280;40636;52.424;-1.948;2022-10-31T02:14:44;99747.19;;;10.26;100.00
43364;BME280;40636;52.424;-1.948;2022-10-31T02:17:11;99747.66;;;10.23;100.00
43364;BME280;40636;52.424;-1.948;2022-10-31T02:20:05;99749.25;;;10.19;100.00
43364;BME280;40636;52.424;-1.948;2022-10-31T02:25:20;99755.22;;;10.15;100.00
43364;BME280;40636;52.424;-1.948;2022-10-31T02:33:34;99756.59;;;10.13;100.00
43364;BME280;40636;52.424;-1.948;2022-10-31T02:36:12;99752.50;;;10.15;100.00
43364;BME280;40636;52.424;-1.948;2022-10-31T02:39:12;99748.09;;;10.14;100.00
43364;BME280;40636;52.424;-1.948;2022-10-31T02:44:49;99750.25;;;10.12;100.00
43364;BME280;40636;52.424;-1.948;2022-10-31T02:47:30;99737.63;;;10.11;100.00
43364;BME280;40636;52.424;-1.948;2022-10-31T02:50:06;99746.13;;;10.10;100.00
43364;BME280;40636;52.424;-1.948;2022-10-31T02:52:34;99740.91;;;10.08;100.00
43364;BME280;40636;52.424;-1.948;2022-10-31T02:57:54;99744.69;;;10.07;100.00
43364;BME280;40636;52.424;-1.948;2022-10-31T03:00:24;99741.94;;;10.07;100.00
43364;BME280;40636;52.424;-1.948;2022-10-31T03:03:15;99738.66;;;10.05;100.00
43364;BME280;40636;52.424;-1.948;2022-10-31T03:11:23;99738.16;;;10.08;100.00
43364;BME280;40636;52.424;-1.948;2022-10-31T03:14:09;99730.50;;;10.10;100.00
43364;BME280;40636;52.424;-1.948;2022-10-31T03:16:50;99734.31;;;10.09;100.00
43364;BME280;40636;52.424;-1.948;2022-10-31T03:19:34;99737.63;;;10.11;100.00
43364;BME280;40636;52.424;-1.948;2022-10-31T03:24:46;99737.63;;;10.11;100.00
43364;BME280;40636;52.424;-1.948;2022-10-31T03:27:18;99732.66;;;10.08;100.00
43364;BME280;40636;52.424;-1.948;2022-10-31T03:29:49;99727.41;;;10.07;100.00
43364;BME280;40636;52.424;-1.948;2022-10-31T03:32:38;99732.66;;;10.08;100.00
43364;BME280;40636;52.424;-1.948;2022-10-31T03:35:09;99736.81;;;10.11;100.00
43364;BME280;40636;52.424;-1.948;2022-10-31T03:37:38;99741.19;;;10.12;100.00
43364;BME280;40636;52.424;-1.948;2022-10-31T03:40:07;99727.50;;;10.12;100.00
43364;BME280;40636;52.424;-1.948;2022-10-31T03:42:39;99735.97;;;10.10;100.00
43364;BME280;40636;52.424;-1.948;2022-10-31T03:45:13;99735.47;;;10.13;100.00
43364;BME280;40636;52.424;-1.948;2022-10-31T03:47:43;99734.13;;;10.16;100.00
43364;BME280;40636;52.424;-1.948;2022-10-31T03:50:13;99737.75;;;10.22;100.00
43364;BME280;40636;52.424;-1.948;2022-10-31T03:52:48;99737.88;;;10.27;100.00
43364;BME280;40636;52.424;-1.948;2022-10-31T03:55:19;99732.69;;;10.30;100.00
43364;BME280;40636;52.424;-1.948;2022-10-31T04:00:55;99726.72;;;10.33;100.00
43364;BME280;40636;52.424;-1.948;2022-10-31T04:03:27;99716.50;;;10.29;100.00
43364;BME280;40636;52.424;-1.948;2022-10-31T04:05:57;99718.09;;;10.25;100.00
43364;BME280;40636;52.424;-1.948;2022-10-31T04:08:28;99727.38;;;10.24;100.00
43364;BME280;40636;52.424;-1.948;2022-10-31T04:10:57;99721.44;;;10.27;100.00
43364;BME280;40636;52.424;-1.948;2022-10-31T04:13:31;99718.16;;;10.30;100.00
43364;BME280;40636;52.424;-1.948;2022-10-31T04:15:59;99713.75;;;10.29;100.00
43364;BME280;40636;52.424;-1.948;2022-10-31T04:18:27;99710.47;;;10.27;100.00
43364;BME280;40636;52.424;-1.948;2022-10-31T04:21:04;99716.19;;;10.25;100.00
43364;BME280;40636;52.424;-1.948;2022-10-31T04:23:32;99701.88;;;10.23;100.00
43364;BME280;40636;52.424;-1.948;2022-10-31T04:25:59;99703.78;;;10.23;100.00
43364;BME280;40636;52.424;-1.948;2022-10-31T04:28:27;99695.81;;;10.21;100.00
43364;BME280;40636;52.424;-1.948;2022-10-31T04:30:54;99703.19;;;10.21;100.00
43364;BME280;40636;52.424;-1.948;2022-10-31T04:33:20;99705.72;;;10.22;100.00
43364;BME280;40636;52.424;-1.948;2022-10-31T04:35:47;99704.84;;;10.22;100.00
43364;BME280;40636;52.424;-1.948;2022-10-31T04:38:14;99699.38;;;10.22;100.00
43364;BME280;40636;52.424;-1.948;2022-10-31T04:40:41;99696.16;;;10.25;100.00
43364;BME280;40636;52.424;-1.948;2022-10-31T04:43:08;99696.22;;;10.30;100.00
43364;BME280;40636;52.424;-1.948;2022-10-31T04:45:34;99688.63;;;10.37;100.00
43364;BME280;40636;52.424;-1.948;2022-10-31T04:48:01;99694.75;;;10.44;100.00
43364;BME280;40636;52.424;-1.948;2022-10-31T04:50:28;99687.66;;;10.48;100.00
43364;BME280;40636;52.424;-1.948;2022-10-31T04:52:55;99700.63;;;10.53;100.00
43364;BME280;40636;52.424;-1.948;2022-10-31T04:55:22;99700.38;;;10.54;100.00
43364;BME280;40636;52.424;-1.948;2022-10-31T04:57:49;99692.97;;;10.55;100.00
43364;BME280;40636;52.424;-1.948;2022-10-31T05:00:18;99692.72;;;10.56;100.00
43364;BME280;40636;52.424;-1.948;2022-10-31T05:02:53;99698.78;;;10.58;100.00
43364;BME280;40636;52.424;-1.948;2022-10-31T05:05:24;99684.53;;;10.61;100.00
43364;BME280;40636;52.424;-1.948;2022-10-31T05:07:52;99685.69;;;10.65;100.00
43364;BME280;40636;52.424;-1.948;2022-10-31T05:10:22;99678.59;;;10.70;100.00
43364;BME280;40636;52.424;-1.948;2022-10-31T05:12:51;99681.38;;;10.75;100.00
43364;BME280;40636;52.424;-1.948;2022-10-31T05:15:19;99683.34;;;10.79;100.00
43364;BME280;40636;52.424;-1.948;2022-10-31T05:17:47;99677.34;;;10.82;100.00
43364;BME280;40636;52.424;-1.948;2022-10-31T05:20:15;99687.78;;;10.85;100.00
43364;BME280;40636;52.424;-1.948;2022-10-31T05:22:45;99680.97;;;10.88;100.00
43364;BME280;40636;52.424;-1.948;2022-10-31T05:25:13;99680.47;;;10.91;100.00
43364;BME280;40636;52.424;-1.948;2022-10-31T05:27:41;99674.97;;;10.91;100.00
43364;BME280;40636;52.424;-1.948;2022-10-31T05:30:10;99679.63;;;10.90;100.00
43364;BME280;40636;52.424;-1.948;2022-10-31T05:32:42;99677.66;;;10.86;100.00
43364;BME280;40636;52.424;-1.948;2022-10-31T05:35:11;99679.50;;;10.80;100.00
43364;BME280;40636;52.424;-1.948;2022-10-31T05:37:38;99672.31;;;10.74;100.00
43364;BME280;40636;52.424;-1.948;2022-10-31T05:40:07;99675.56;;;10.71;100.00
43364;BME280;40636;52.424;-1.948;2022-10-31T05:42:35;99668.16;;;10.72;100.00
43364;BME280;40636;52.424;-1.948;2022-10-31T05:45:02;99668.94;;;10.67;100.00
43364;BME280;40636;52.424;-1.948;2022-10-31T05:47:29;99673.91;;;10.70;100.00
43364;BME280;40636;52.424;-1.948;2022-10-31T05:49:55;99665.97;;;10.69;100.00
43364;BME280;40636;52.424;-1.948;2022-10-31T05:52:22;99663.78;;;10.71;100.00
43364;BME280;40636;52.424;-1.948;2022-10-31T05:54:49;99655.22;;;10.67;100.00
43364;BME280;40636;52.424;-1.948;2022-10-31T05:57:16;99653.84;;;10.64;100.00
43364;BME280;40636;52.424;-1.948;2022-10-31T05:59:42;99653.25;;;10.62;100.00
43364;BME280;40636;52.424;-1.948;2022-10-31T06:02:09;99652.38;;;10.57;100.00
43364;BME280;40636;52.424;-1.948;2022-10-31T06:04:36;99646.56;;;10.53;100.00
43364;BME280;40636;52.424;-1.948;2022-10-31T06:07:03;99643.25;;;10.51;100.00
43364;BME280;40636;52.424;-1.948;2022-10-31T06:09:29;99636.69;;;10.52;100.00
43364;BME280;40636;52.424;-1.948;2022-10-31T06:11:56;99642.72;;;10.49;100.00
43364;BME280;40636;52.424;-1.948;2022-10-31T06:14:23;99635.53;;;10.48;100.00
43364;BME280;40636;52.424;-1.948;2022-10-31T06:16:50;99642.13;;;10.47;100.00
43364;BME280;40636;52.424;-1.948;2022-10-31T06:19:16;99636.63;;;10.47;100.00
43364;BME280;40636;52.424;-1.948;2022-10-31T06:21:43;99636.91;;;10.46;100.00
43364;BME280;40636;52.424;-1.948;2022-10-31T06:24:10;99630.31;;;10.47;100.00
43364;BME280;40636;52.424;-1.948;2022-10-31T06:26:36;99630.88;;;10.49;100.00
43364;BME280;40636;52.424;-1.948;2022-10-31T06:29:04;99624.63;;;10.53;100.00
43364;BME280;40636;52.424;-1.948;2022-10-31T06:31:30;99623.59;;;10.59;100.00
43364;BME280;40636;52.424;-1.948;2022-10-31T06:33:57;99619.75;;;10.60;100.00
43364;BME280;40636;52.424;-1.948;2022-10-31T06:36:24;99617.84;;;10.61;100.00
43364;BME280;40636;52.424;-1.948;2022-10-31T06:38:56;99611.53;;;10.60;100.00
43364;BME280;40636;52.424;-1.948;2022-10-31T06:41:22;99615.88;;;10.56;100.00
43364;BME280;40636;52.424;-1.948;2022-10-31T06:43:49;99615.31;;;10.54;100.00
43364;BME280;40636;52.424;-1.948;2022-10-31T06:46:16;99612.81;;;10.53;100.00
43364;BME280;40636;52.424;-1.948;2022-10-31T06:48:42;99613.34;;;10.50;100.00
43364;BME280;40636;52.424;-1.948;2022-10-31T06:51:09;99619.34;;;10.47;100.00
43364;BME280;40636;52.424;-1.948;2022-10-31T06:53:37;99612.44;;;10.44;100.00
43364;BME280;40636;52.424;-1.948;2022-10-31T06:56:03;99620.38;;;10.40;100.00
43364;BME280;40636;52.424;-1.948;2022-10-31T06:58:30;99621.22;;;10.41;100.00
43364;BME280;40636;52.424;-1.948;2022-10-31T07:01:00;99625.28;;;10.38;100.00
43364;BME280;40636;52.424;-1.948;2022-10-31T07:03:27;99627.22;;;10.38;100.00
43364;BME280;40636;52.424;-1.948;2022-10-31T07:05:57;99634.94;;;10.41;100.00
43364;BME280;40636;52.424;-1.948;2022-10-31T07:08:24;99637.13;;;10.44;100.00
43364;BME280;40636;52.424;-1.948;2022-10-31T07:10:56;99636.38;;;10.49;100.00
43364;BME280;40636;52.424;-1.948;2022-10-31T07:13:24;99640.53;;;10.51;100.00
43364;BME280;40636;52.424;-1.948;2022-10-31T07:15:58;99629.03;;;10.54;100.00
43364;BME280;40636;52.424;-1.948;2022-10-31T07:18:25;99631.53;;;10.56;100.00
43364;BME280;40636;52.424;-1.948;2022-10-31T07:20:52;99634.56;;;10.59;100.00
43364;BME280;40636;52.424;-1.948;2022-10-31T07:23:19;99641.22;;;10.63;100.00
43364;BME280;40636;52.424;-1.948;2022-10-31T07:25:46;99636.28;;;10.65;100.00
43364;BME280;40636;52.424;-1.948;2022-10-31T07:28:12;99641.50;;;10.67;100.00
43364;BME280;40636;52.424;-1.948;2022-10-31T07:30:39;99638.75;;;10.67;100.00
43364;BME280;40636;52.424;-1.948;2022-10-31T07:33:06;99644.00;;;10.69;100.00
43364;BME280;40636;52.424;-1.948;2022-10-31T07:35:33;99645.34;;;10.66;100.00
43364;BME280;40636;52.424;-1.948;2022-10-31T07:38:08;99645.34;;;10.66;100.00
43364;BME280;40636;52.424;-1.948;2022-10-31T07:40:36;99635.78;;;10.69;100.00
43364;BME280;40636;52.424;-1.948;2022-10-31T07:43:03;99634.13;;;10.68;100.00
43364;BME280;40636;52.424;-1.948;2022-10-31T07:45:33;99636.88;;;10.68;100.00
43364;BME280;40636;52.424;-1.948;2022-10-31T07:48:00;99642.09;;;10.69;100.00
43364;BME280;40636;52.424;-1.948;2022-10-31T07:50:28;99641.81;;;10.71;100.00
43364;BME280;40636;52.424;-1.948;2022-10-31T07:53:03;99643.53;;;10.77;100.00
43364;BME280;40636;52.424;-1.948;2022-10-31T07:55:31;99643.59;;;10.82;100.00
43364;BME280;40636;52.424;-1.948;2022-10-31T07:58:06;99644.72;;;10.86;100.00
43364;BME280;40636;52.424;-1.948;2022-10-31T08:00:35;99638.75;;;10.94;100.00
43364;BME280;40636;52.424;-1.948;2022-10-31T08:03:03;99640.72;;;10.99;100.00
43364;BME280;40636;52.424;-1.948;2022-10-31T08:05:31;99645.97;;;11.00;100.00
43364;BME280;40636;52.424;-1.948;2022-10-31T08:07:58;99649.25;;;11.02;100.00
43364;BME280;40636;52.424;-1.948;2022-10-31T08:10:27;99650.13;;;11.08;100.00
43364;BME280;40636;52.424;-1.948;2022-10-31T08:13:08;99653.50;;;11.15;100.00
43364;BME280;40636;52.424;-1.948;2022-10-31T08:15:35;99654.34;;;11.21;100.00
43364;BME280;40636;52.424;-1.948;2022-10-31T08:18:05;99653.31;;;11.27;100.00
43364;BME280;40636;52.424;-1.948;2022-10-31T08:20:32;99656.66;;;11.34;100.00
43364;BME280;40636;52.424;-1.948;2022-10-31T08:23:01;99661.69;;;11.42;100.00
43364;BME280;40636;52.424;-1.948;2022-10-31T08:25:30;99666.94;;;11.49;100.00
43364;BME280;40636;52.424;-1.948;2022-10-31T08:28:04;99666.72;;;11.55;100.00
43364;BME280;40636;52.424;-1.948;2022-10-31T08:30:35;99658.78;;;11.59;100.00
43364;BME280;40636;52.424;-1.948;2022-10-31T08:33:06;99655.25;;;11.63;100.00
43364;BME280;40636;52.424;-1.948;2022-10-31T08:35:34;99647.56;;;11.71;100.00
43364;BME280;40636;52.424;-1.948;2022-10-31T08:38:01;99655.06;;;11.80;100.00
43364;BME280;40636;52.424;-1.948;2022-10-31T08:40:30;99652.66;;;11.89;100.00
43364;BME280;40636;52.424;-1.948;2022-10-31T08:43:02;99645.00;;;11.96;100.00
43364;BME280;40636;52.424;-1.948;2022-10-31T08:45:31;99637.63;;;12.07;100.00
43364;BME280;40636;52.424;-1.948;2022-10-31T08:47:59;99640.69;;;12.15;100.00
43364;BME280;40636;52.424;-1.948;2022-10-31T08:50:28;99634.69;;;12.24;100.00
43364;BME280;40636;52.424;-1.948;2022-10-31T08:53:03;99637.75;;;12.32;100.00
43364;BME280;40636;52.424;-1.948;2022-10-31T08:55:35;99627.03;;;12.41;100.00
43364;BME280;40636;52.424;-1.948;2022-10-31T08:58:05;99620.22;;;12.54;100.00
43364;BME280;40636;52.424;-1.948;2022-10-31T09:00:33;99625.44;;;12.55;100.00
43364;BME280;40636;52.424;-1.948;2022-10-31T09:03:06;99622.97;;;12.59;100.00
43364;BME280;40636;52.424;-1.948;2022-10-31T09:05:33;99618.28;;;12.59;100.00
43364;BME280;40636;52.424;-1.948;2022-10-31T09:08:02;99629.00;;;12.61;100.00
43364;BME280;40636;52.424;-1.948;2022-10-31T09:10:31;99617.72;;;12.62;100.00
43364;BME280;40636;52.424;-1.948;2022-10-31T09:13:01;99617.72;;;12.62;100.00
43364;BME280;40636;52.424;-1.948;2022-10-31T09:15:28;99610.56;;;12.66;100.00
43364;BME280;40636;52.424;-1.948;2022-10-31T09:17:55;99605.94;;;12.72;100.00
43364;BME280;40636;52.424;-1.948;2022-10-31T09:20:23;99608.94;;;12.76;100.00
43364;BME280;40636;52.424;-1.948;2022-10-31T09:22:58;99611.16;;;12.79;100.00
43364;BME280;40636;52.424;-1.948;2022-10-31T09:25:26;99611.72;;;12.86;100.00
43364;BME280;40636;52.424;-1.948;2022-10-31T09:27:57;99608.97;;;12.91;100.00
43364;BME280;40636;52.424;-1.948;2022-10-31T09:30:27;99604.56;;;12.95;100.00
43364;BME280;40636;52.424;-1.948;2022-10-31T09:32:55;99611.16;;;12.94;100.00
43364;BME280;40636;52.424;-1.948;2022-10-31T09:35:23;99599.59;;;12.97;100.00
43364;BME280;40636;52.424;-1.948;2022-10-31T09:37:59;99589.69;;;12.96;100.00
43364;BME280;40636;52.424;-1.948;2022-10-31T09:40:39;99571.78;;;12.99;100.00
43364;BME280;40636;52.424;-1.948;2022-10-31T09:43:25;99567.94;;;13.05;100.00
43364;BME280;40636;52.424;-1.948;2022-10-31T09:51:48;99565.97;;;13.15;100.00
43364;BME280;40636;52.424;-1.948;2022-10-31T09:54:27;99564.88;;;13.16;100.00
43364;BME280;40636;52.424;-1.948;2022-10-31T09:56:57;99570.38;;;13.21;100.00
43364;BME280;40636;52.424;-1.948;2022-10-31T09:59:39;99573.72;;;13.29;100.00
43364;BME280;40636;52.424;-1.948;2022-10-31T10:02:16;99563.25;;;13.31;100.00
43364;BME280;40636;52.424;-1.948;2022-10-31T10:10:02;99553.88;;;13.37;100.00
43364;BME280;40636;52.424;-1.948;2022-10-31T10:15:27;99556.03;;;13.50;100.00
43364;BME280;40636;52.424;-1.948;2022-10-31T10:18:26;99560.16;;;13.58;100.00
43364;BME280;40636;52.424;-1.948;2022-10-31T10:27:14;99547.13;;;13.79;100.00
43364;BME280;40636;52.424;-1.948;2022-10-31T10:30:17;99541.88;;;13.82;100.00
43364;BME280;40636;52.424;-1.948;2022-10-31T10:33:27;99542.66;;;13.93;100.00
43364;BME280;40636;52.424;-1.948;2022-10-31T10:36:02;99539.00;;;14.03;100.00
43364;BME280;40636;52.424;-1.948;2022-10-31T10:38:37;99529.94;;;13.97;100.00
43364;BME280;40636;52.424;-1.948;2022-10-31T10:41:11;99530.78;;;13.92;100.00
43364;BME280;40636;52.424;-1.948;2022-10-31T10:43:40;99532.44;;;13.93;100.00
43364;BME280;40636;52.424;-1.948;2022-10-31T10:51:39;99523.31;;;13.98;100.00
43364;BME280;40636;52.424;-1.948;2022-10-31T10:59:50;99518.22;;;14.20;100.00
43364;BME280;40636;52.424;-1.948;2022-10-31T11:02:20;99515.44;;;14.26;100.00
43364;BME280;40636;52.424;-1.948;2022-10-31T11:04:52;99511.53;;;14.32;100.00
43364;BME280;40636;52.424;-1.948;2022-10-31T11:07:21;99504.34;;;14.36;100.00
43364;BME280;40636;52.424;-1.948;2022-10-31T11:09:48;99498.78;;;14.41;100.00
43364;BME280;40636;52.424;-1.948;2022-10-31T11:12:31;99504.00;;;14.42;100.00
43364;BME280;40636;52.424;-1.948;2022-10-31T11:17:56;99496.56;;;14.43;100.00
43364;BME280;40636;52.424;-1.948;2022-10-31T11:20:32;99486.66;;;14.37;100.00
43364;BME280;40636;52.424;-1.948;2022-10-31T11:23:19;99477.25;;;14.38;100.00
43364;BME280;40636;52.424;-1.948;2022-10-31T11:28:22;99470.34;;;14.40;100.00
43364;BME280;40636;52.424;-1.948;2022-10-31T11:30:58;99463.72;;;14.41;100.00
43364;BME280;40636;52.424;-1.948;2022-10-31T11:33:30;99460.66;;;14.43;100.00
43364;BME280;40636;52.424;-1.948;2022-10-31T11:36:01;99461.53;;;14.38;100.00
43364;BME280;40636;52.424;-1.948;2022-10-31T11:38:41;99461.25;;;14.40;100.00
43364;BME280;40636;52.424;-1.948;2022-10-31T11:41:26;99453.53;;;14.37;100.00
43364;BME280;40636;52.424;-1.948;2022-10-31T11:43:58;99450.47;;;14.38;100.00
43364;BME280;40636;52.424;-1.948;2022-10-31T11:46:47;99447.69;;;14.43;100.00
43364;BME280;40636;52.424;-1.948;2022-10-31T11:49:19;99441.34;;;14.43;100.00
43364;BME280;40636;52.424;-1.948;2022-10-31T11:51:52;99435.00;;;14.42;100.00
43364;BME280;40636;52.424;-1.948;2022-10-31T11:54:30;99430.53;;;14.52;100.00
43364;BME280;40636;52.424;-1.948;2022-10-31T11:56:58;99432.72;;;14.55;100.00
43364;BME280;40636;52.424;-1.948;2022-10-31T11:59:31;99422.97;;;14.62;100.00
43364;BME280;40636;52.424;-1.948;2022-10-31T12:02:00;99426.53;;;14.68;100.00
43364;BME280;40636;52.424;-1.948;2022-10-31T12:04:32;99420.41;;;14.71;100.00
43364;BME280;40636;52.424;-1.948;2022-10-31T12:07:01;99420.09;;;14.78;100.00
43364;BME280;40636;52.424;-1.948;2022-10-31T12:09:30;99426.06;;;14.85;100.00
43364;BME280;40636;52.424;-1.948;2022-10-31T12:17:15;99405.53;;;14.96;100.00
43364;BME280;40636;52.424;-1.948;2022-10-31T12:30:30;99373.56;;;14.90;100.00
43364;BME280;40636;52.424;-1.948;2022-10-31T12:47:36;99341.09;;;15.01;100.00
43364;BME280;40636;52.424;-1.948;2022-10-31T12:58:59;99317.53;;;15.08;100.00
43364;BME280;40636;52.424;-1.948;2022-10-31T13:01:39;99306.75;;;15.07;100.00
43364;BME280;40636;52.424;-1.948;2022-10-31T13:07:14;99304.53;;;15.09;100.00
43364;BME280;40636;52.424;-1.948;2022-10-31T13:10:05;99288.22;;;15.07;100.00
43364;BME280;40636;52.424;-1.948;2022-10-31T13:12:34;99290.06;;;14.93;100.00
43364;BME280;40636;52.424;-1.948;2022-10-31T13:15:12;99284.53;;;14.93;100.00
43364;BME280;40636;52.424;-1.948;2022-10-31T13:17:48;99274.09;;;14.90;100.00
43364;BME280;40636;52.424;-1.948;2022-10-31T13:26:16;99267.34;;;14.77;100.00
43364;BME280;40636;52.424;-1.948;2022-10-31T13:31:17;99256.94;;;14.69;100.00
43364;BME280;40636;52.424;-1.948;2022-10-31T13:33:52;99258.34;;;14.66;100.00
43364;BME280;40636;52.424;-1.948;2022-10-31T13:43:02;99239.06;;;14.61;100.00
43364;BME280;40636;52.424;-1.948;2022-10-31T13:45:31;99247.28;;;14.66;100.00
43364;BME280;40636;52.424;-1.948;2022-10-31T13:50:41;99231.78;;;14.70;100.00
43364;BME280;40636;52.424;-1.948;2022-10-31T13:55:46;99223.59;;;14.84;100.00
43364;BME280;40636;52.424;-1.948;2022-10-31T13:58:21;99218.31;;;14.88;100.00
43364;BME280;40636;52.424;-1.948;2022-10-31T14:03:44;99202.94;;;15.01;100.00
43364;BME280;40636;52.424;-1.948;2022-10-31T14:06:56;99202.13;;;15.00;100.00
43364;BME280;40636;52.424;-1.948;2022-10-31T14:09:31;99190.69;;;15.07;100.00
43364;BME280;40636;52.424;-1.948;2022-10-31T14:12:02;99192.03;;;15.09;100.00
43364;BME280;40636;52.424;-1.948;2022-10-31T14:14:40;99184.91;;;15.03;100.00
43364;BME280;40636;52.424;-1.948;2022-10-31T14:17:20;99188.31;;;15.00;100.00
43364;BME280;40636;52.424;-1.948;2022-10-31T14:20:25;99174.66;;;14.90;100.00
43364;BME280;40636;52.424;-1.948;2022-10-31T14:22:57;99166.13;;;14.86;100.00
43364;BME280;40636;52.424;-1.948;2022-10-31T14:27:55;99163.72;;;14.98;100.00
43364;BME280;40636;52.424;-1.948;2022-10-31T14:30:25;99163.66;;;15.04;100.00
43364;BME280;40636;52.424;-1.948;2022-10-31T14:32:56;99160.19;;;15.12;100.00
43364;BME280;40636;52.424;-1.948;2022-10-31T14:36:11;99161.03;;;15.12;100.00
43364;BME280;40636;52.424;-1.948;2022-10-31T14:38:36;99151.41;;;15.10;100.00
43364;BME280;40636;52.424;-1.948;2022-10-31T14:41:25;99150.66;;;15.04;100.00
43364;BME280;40636;52.424;-1.948;2022-10-31T14:47:31;99141.03;;;14.83;100.00
43364;BME280;40636;52.424;-1.948;2022-10-31T14:50:09;99135.66;;;14.73;100.00
43364;BME280;40636;52.424;-1.948;2022-10-31T14:52:40;99124.53;;;14.59;100.00
43364;BME280;40636;52.424;-1.948;2022-10-31T14:55:13;99121.09;;;14.43;100.00
43364;BME280;40636;52.424;-1.948;2022-10-31T14:57:51;99120.59;;;14.41;100.00
43364;BME280;40636;52.424;-1.948;2022-10-31T15:00:21;99104.31;;;14.39;100.00
43364;BME280;40636;52.424;-1.948;2022-10-31T15:03:16;99107.97;;;14.35;100.00
43364;BME280;40636;52.424;-1.948;2022-10-31T15:05:49;99109.16;;;14.29;100.00
43364;BME280;40636;52.424;-1.948;2022-10-31T15:08:38;99105.91;;;14.21;100.00
43364;BME280;40636;52.424;-1.948;2022-10-31T15:11:15;99105.16;;;14.16;100.00
43364;BME280;40636;52.424;-1.948;2022-10-31T15:13:51;99097.25;;;14.09;100.00
43364;BME280;40636;52.424;-1.948;2022-10-31T15:16:24;99084.28;;;14.10;100.00
43364;BME280;40636;52.424;-1.948;2022-10-31T15:18:56;99072.72;;;14.08;100.00